Time;durP1;ratioP1;P1;durP2;ratioP2;P2;SDS_P1;SDS_P2;PMS_P1;PMS_P2;Temp;Humidity;BMP_temperature;BMP_pressure;BME280_temperature;BME280_humidity;BME280_pressure;Samples;Min_cycle;Max_cycle;Signal;HPM_P1;HPM_P2
2023/03/14 00:00:39;;;;;;;3.72;1.65;;;23.30;76.40;;;;;;6099878;28;80307;-59
2023/03/14 00:03:39;;;;;;;3.20;1.33;;;23.20;76.30;;;;;;6101238;28;80652;-59
2023/03/14 00:06:40;;;;;;;2.92;1.52;;;23.20;76.20;;;;;;6100095;28;80652;-58
2023/03/14 00:09:40;;;;;;;1.58;1.33;;;23.30;76.30;;;;;;6100951;28;80690;-58
2023/03/14 00:12:41;;;;;;;4.15;1.60;;;23.20;76.30;;;;;;6099958;28;80880;-58
2023/03/14 00:15:41;;;;;;;3.42;2.05;;;23.20;76.00;;;;;;6100839;28;80280;-60
2023/03/14 00:18:42;;;;;;;2.72;1.60;;;23.20;76.10;;;;;;6101714;27;82894;-59
2023/03/14 00:21:42;;;;;;;2.75;1.55;;;23.20;75.90;;;;;;6090910;28;80382;-60
2023/03/14 00:24:43;;;;;;;2.22;1.63;;;23.20;75.80;;;;;;6101024;28;81744;-60
2023/03/14 00:27:43;;;;;;;2.30;1.55;;;23.20;75.80;;;;;;6100102;28;81014;-59
2023/03/14 00:30:47;;;;;;;2.45;1.60;;;23.20;75.90;;;;;;6100879;28;80517;-59
2023/03/14 00:33:47;;;;;;;1.45;1.30;;;23.20;76.10;;;;;;6099722;28;80411;-59
2023/03/14 00:36:48;;;;;;;2.75;1.25;;;23.20;76.10;;;;;;6099759;28;80395;-60
2023/03/14 00:39:48;;;;;;;2.58;1.60;;;23.20;75.90;;;;;;6099928;28;80429;-60
2023/03/14 00:42:49;;;;;;;2.08;1.38;;;23.20;75.80;;;;;;6095508;28;84644;-59
2023/03/14 00:45:49;;;;;;;2.45;1.40;;;23.20;75.90;;;;;;6099972;28;83323;-59
2023/03/14 00:48:50;;;;;;;2.70;1.67;;;23.20;75.70;;;;;;6099941;28;80855;-59
2023/03/14 00:51:51;;;;;;;2.67;1.83;;;23.20;75.90;;;;;;6097924;28;83390;-59
2023/03/14 00:54:51;;;;;;;2.35;1.42;;;23.20;75.80;;;;;;6101647;28;81844;-69
2023/03/14 00:57:52;;;;;;;2.80;1.27;;;23.20;75.90;;;;;;6104037;28;80770;-69
2023/03/14 01:00:53;;;;;;;1.67;1.17;;;23.20;75.90;;;;;;6102057;28;82027;-65
2023/03/14 01:03:53;;;;;;;2.65;1.50;;;23.20;76.00;;;;;;6102356;28;83482;-65
2023/03/14 01:06:54;;;;;;;2.30;1.38;;;23.20;76.10;;;;;;6102747;28;81634;-66
2023/03/14 01:09:54;;;;;;;2.30;1.35;;;23.20;76.10;;;;;;6101571;28;83209;-65
2023/03/14 01:12:55;;;;;;;2.90;1.85;;;23.20;76.20;;;;;;6103003;28;80277;-64
2023/03/14 01:15:55;;;;;;;2.25;1.60;;;23.20;76.20;;;;;;6103644;28;80481;-70
2023/03/14 01:18:56;;;;;;;2.13;1.48;;;23.20;76.20;;;;;;6100872;28;85935;-69
2023/03/14 01:21:56;;;;;;;1.95;1.30;;;23.20;76.10;;;;;;6102525;28;80676;-71
2023/03/14 01:24:57;;;;;;;2.38;1.30;;;23.20;76.30;;;;;;6102210;28;83477;-71
2023/03/14 01:27:57;;;;;;;1.80;1.50;;;23.20;76.60;;;;;;6103958;28;80718;-69
2023/03/14 01:30:59;;;;;;;3.80;1.60;;;23.20;76.70;;;;;;6100777;28;83012;-58
2023/03/14 01:33:59;;;;;;;2.83;1.52;;;23.20;76.50;;;;;;6102776;28;80534;-59
2023/03/14 01:37:00;;;;;;;2.60;1.45;;;23.20;76.50;;;;;;6101213;28;82959;-59
2023/03/14 01:40:01;;;;;;;2.75;1.50;;;23.20;76.80;;;;;;6099648;28;83681;-59
2023/03/14 01:43:01;;;;;;;3.28;1.48;;;23.20;76.80;;;;;;6098241;28;84288;-59
2023/03/14 01:46:02;;;;;;;2.33;1.52;;;23.20;76.70;;;;;;6098660;28;80425;-58
2023/03/14 01:49:03;;;;;;;2.05;1.60;;;23.20;76.60;;;;;;6099533;28;83279;-59
2023/03/14 01:52:04;;;;;;;1.98;1.23;;;23.30;76.60;;;;;;6097551;28;82836;-58
2023/03/14 01:55:05;;;;;;;2.13;1.50;;;23.20;76.70;;;;;;6174909;28;83558;-57
2023/03/14 01:58:05;;;;;;;2.88;1.50;;;23.30;76.90;;;;;;6116016;28;82875;-57
2023/03/14 02:01:06;;;;;;;3.30;2.08;;;23.20;76.80;;;;;;6185488;28;83435;-58
2023/03/14 02:04:07;;;;;;;3.40;1.70;;;23.20;76.80;;;;;;6117169;28;82916;-57
2023/03/14 02:07:08;;;;;;;2.67;1.70;;;23.20;76.80;;;;;;6100563;28;83063;-57
2023/03/14 02:10:13;;;;;;;2.88;1.45;;;23.20;76.70;;;;;;6101312;28;82688;-58
2023/03/14 02:13:14;;;;;;;2.17;1.50;;;23.20;76.90;;;;;;6102566;28;80410;-58
2023/03/14 02:16:34;;;;;;;3.05;1.92;;;23.20;77.00;;;;;;6090841;28;81277;-58
2023/03/14 02:19:58;;;;;;;2.55;1.77;;;23.20;77.00;;;;;;6089570;28;84917;-58
2023/03/14 02:23:09;;;;;;;2.05;1.60;;;23.20;77.00;;;;;;6103201;28;80270;-58
2023/03/14 02:26:10;;;;;;;2.00;1.50;;;23.20;77.00;;;;;;6093703;28;81347;-67
2023/03/14 02:29:10;;;;;;;2.75;1.42;;;23.20;76.90;;;;;;6100657;28;82999;-66
2023/03/14 02:32:11;;;;;;;3.17;1.63;;;23.20;76.80;;;;;;6082199;28;83084;-68
2023/03/14 02:35:14;;;;;;;2.03;1.70;;;23.20;77.00;;;;;;6093900;28;81423;-67
2023/03/14 02:38:14;;;;;;;3.90;1.98;;;23.20;76.90;;;;;;6100402;28;83561;-67
2023/03/14 02:41:18;;;;;;;3.10;1.83;;;23.20;76.90;;;;;;6100760;28;83220;-67
2023/03/14 02:44:25;;;;;;;2.35;1.45;;;23.20;76.90;;;;;;6100454;28;83234;-68
2023/03/14 02:47:26;;;;;;;2.47;1.58;;;23.20;76.90;;;;;;6100351;28;82737;-69
2023/03/14 02:50:26;;;;;;;2.40;1.63;;;23.20;76.80;;;;;;6099719;28;80424;-68
2023/03/14 02:53:29;;;;;;;2.70;1.48;;;23.20;76.90;;;;;;6098301;28;83667;-70
2023/03/14 02:56:32;;;;;;;2.05;1.35;;;23.20;77.00;;;;;;6105807;28;83868;-70
2023/03/14 02:59:34;;;;;;;2.83;1.50;;;23.20;77.00;;;;;;6100482;28;82803;-73
2023/03/14 03:02:41;;;;;;;1.85;1.52;;;23.20;77.10;;;;;;6101157;28;83244;-59
2023/03/14 03:05:43;;;;;;;2.60;1.60;;;23.20;77.10;;;;;;6104461;28;81450;-57
2023/03/14 03:08:44;;;;;;;3.00;1.60;;;23.20;76.90;;;;;;6095597;28;80449;-58
2023/03/14 03:11:45;;;;;;;1.60;1.48;;;23.20;76.90;;;;;;6098849;28;83203;-58
2023/03/14 03:14:51;;;;;;;2.42;1.63;;;23.20;77.10;;;;;;6098886;28;81996;-58
2023/03/14 03:17:52;;;;;;;1.65;1.40;;;23.20;77.10;;;;;;6098046;28;82277;-59
2023/03/14 03:20:54;;;;;;;1.92;1.55;;;23.20;77.20;;;;;;6089312;28;83891;-65
2023/03/14 03:23:56;;;;;;;1.67;1.45;;;23.20;77.20;;;;;;6144961;28;81802;-66
2023/03/14 03:26:57;;;;;;;1.65;1.40;;;23.20;77.30;;;;;;6155410;28;80472;-66
2023/03/14 03:29:58;;;;;;;2.15;1.63;;;23.20;77.40;;;;;;6099707;28;82335;-66
2023/03/14 03:32:58;;;;;;;2.35;1.42;;;23.20;77.20;;;;;;6099025;28;83294;-67
2023/03/14 03:35:59;;;;;;;4.03;1.75;;;23.20;77.20;;;;;;6101127;28;81279;-68
2023/03/14 03:39:04;;;;;;;2.35;1.40;;;23.20;77.20;;;;;;6098487;28;81844;-66
2023/03/14 03:42:05;;;;;;;2.38;1.73;;;23.20;77.10;;;;;;6100235;28;80471;-64
2023/03/14 03:45:06;;;;;;;2.20;1.60;;;23.20;77.00;;;;;;6099514;28;81547;-65
2023/03/14 03:48:10;;;;;;;2.08;1.50;;;23.20;77.00;;;;;;6096271;28;81435;-65
2023/03/14 03:51:10;;;;;;;2.85;1.42;;;23.20;77.00;;;;;;6078958;28;80748;-65
2023/03/14 03:54:11;;;;;;;2.35;1.60;;;23.20;76.90;;;;;;6100176;28;83166;-64
2023/03/14 03:57:12;;;;;;;2.92;1.65;;;23.20;76.90;;;;;;6100573;28;83401;-64
2023/03/14 04:00:13;;;;;;;1.67;1.55;;;23.20;76.80;;;;;;6099809;28;80404;-63
2023/03/14 04:03:16;;;;;;;2.10;1.40;;;23.20;76.80;;;;;;6101607;28;82641;-63
2023/03/14 04:06:17;;;;;;;2.72;1.65;;;23.20;76.90;;;;;;6099258;28;83182;-65
2023/03/14 04:09:20;;;;;;;2.42;1.40;;;23.20;76.80;;;;;;6098301;28;82728;-65
2023/03/14 04:12:32;;;;;;;2.78;1.58;;;23.10;76.80;;;;;;6098352;28;83525;-66
2023/03/14 04:15:46;;;;;;;2.53;1.80;;;23.10;76.80;;;;;;6099756;28;82723;-66
2023/03/14 04:18:52;;;;;;;3.75;1.77;;;23.20;77.10;;;;;;6098358;28;83591;-66
2023/03/14 04:21:55;;;;;;;2.53;1.80;;;23.20;76.90;;;;;;6094520;28;81821;-68
2023/03/14 04:25:02;;;;;;;2.53;1.75;;;23.20;77.00;;;;;;6099126;28;80735;-68
2023/03/14 04:28:03;;;;;;;2.53;1.40;;;23.20;76.90;;;;;;6098653;28;81856;-69
2023/03/14 04:31:05;;;;;;;2.53;1.52;;;23.30;76.80;;;;;;6090396;28;83271;-66
2023/03/14 04:34:06;;;;;;;2.83;1.70;;;23.30;76.80;;;;;;6098535;28;80503;-62
2023/03/14 04:37:11;;;;;;;2.15;1.70;;;23.40;77.10;;;;;;6089921;28;82614;-63
2023/03/14 04:40:15;;;;;;;1.63;1.38;;;23.40;77.50;;;;;;6093613;28;83665;-63
2023/03/14 04:43:16;;;;;;;3.10;1.63;;;23.40;77.60;;;;;;6093057;28;82989;-63
2023/03/14 04:46:30;;;;;;;1.65;1.30;;;23.40;77.40;;;;;;6092810;28;85275;-61
2023/03/14 04:49:31;;;;;;;2.70;1.45;;;23.50;77.20;;;;;;6093207;28;83319;-62
2023/03/14 04:52:31;;;;;;;1.50;1.40;;;23.50;77.20;;;;;;6095869;28;82040;-61
2023/03/14 04:55:34;;;;;;;3.17;1.90;;;23.50;77.50;;;;;;6089815;28;81458;-65
2023/03/14 04:58:35;;;;;;;3.28;1.55;;;23.50;77.50;;;;;;6095858;28;83002;-66
2023/03/14 05:01:37;;;;;;;2.08;1.50;;;23.60;77.20;;;;;;6087665;28;88031;-64
2023/03/14 05:05:03;;;;;;;2.00;1.17;;;23.60;77.00;;;;;;6098958;28;81386;-61
2023/03/14 05:08:23;;;;;;;3.03;1.52;;;23.60;76.80;;;;;;6099944;28;82770;-61
2023/03/14 05:11:42;;;;;;;2.75;1.60;;;23.60;76.60;;;;;;6101241;28;80224;-61
2023/03/14 05:15:08;;;;;;;7.65;2.60;;;23.60;76.40;;;;;;6085793;28;80462;-61
2023/03/14 05:18:26;;;;;;;5.13;2.35;;;23.60;76.40;;;;;;6098150;28;83309;-62
2023/03/14 05:21:41;;;;;;;3.13;2.10;;;23.70;76.30;;;;;;6086534;28;83478;-67
2023/03/14 05:24:44;;;;;;;3.95;2.10;;;23.70;76.40;;;;;;6099354;28;80629;-68
2023/03/14 05:28:07;;;;;;;5.93;2.28;;;23.70;76.50;;;;;;6088462;28;82398;-66
2023/03/14 05:31:37;;;;;;;2.70;1.63;;;23.70;76.70;;;;;;6097896;27;88141;-58
2023/03/14 05:35:04;;;;;;;5.05;1.73;;;23.70;76.90;;;;;;6098074;28;83209;-66
2023/03/14 05:38:37;;;;;;;4.95;2.50;;;23.70;77.10;;;;;;6066376;28;81463;-60
2023/03/14 05:42:02;;;;;;;4.30;1.90;;;23.70;77.60;;;;;;6101031;28;81582;-66
2023/03/14 05:45:21;;;;;;;4.18;2.13;;;23.70;77.50;;;;;;6102547;28;81339;-58
2023/03/14 05:48:40;;;;;;;5.15;2.00;;;23.70;77.70;;;;;;6102238;28;81524;-65
2023/03/14 05:52:07;;;;;;;10.15;2.55;;;23.70;78.20;;;;;;6101377;28;81078;-66
2023/03/14 05:55:20;;;;;;;9.30;2.70;;;23.70;78.50;;;;;;6171134;28;83317;-59
2023/03/14 05:58:47;;;;;;;6.63;2.15;;;23.70;78.70;;;;;;6081364;28;85669;-60
2023/03/14 06:01:58;;;;;;;9.10;2.72;;;23.70;78.70;;;;;;6099560;28;84145;-59
2023/03/14 06:05:02;;;;;;;9.98;2.70;;;23.70;78.40;;;;;;6098447;28;83401;-68
2023/03/14 06:08:03;;;;;;;6.25;2.58;;;23.70;78.20;;;;;;6099030;28;83154;-69
2023/03/14 06:11:05;;;;;;;5.72;2.53;;;23.80;78.20;;;;;;6099867;28;82864;-69
2023/03/14 06:14:06;;;;;;;9.52;2.88;;;23.80;78.10;;;;;;6099717;28;81855;-69
2023/03/14 06:17:06;;;;;;;6.28;2.53;;;23.70;78.50;;;;;;6101347;28;80353;-69
2023/03/14 06:20:14;;;;;;;5.53;2.97;;;23.70;77.80;;;;;;6096465;28;82593;-67
2023/03/14 06:23:15;;;;;;;7.50;2.95;;;23.70;77.70;;;;;;6099236;28;80389;-67
2023/03/14 06:26:15;;;;;;;6.78;2.47;;;23.70;77.60;;;;;;6088228;28;80398;-67
2023/03/14 06:29:16;;;;;;;6.07;2.65;;;23.70;77.40;;;;;;6096818;28;83434;-67
2023/03/14 06:32:17;;;;;;;6.00;2.42;;;23.70;77.20;;;;;;6122786;28;80953;-66
2023/03/14 06:35:19;;;;;;;6.10;2.88;;;23.70;77.30;;;;;;6175419;28;83826;-66
2023/03/14 06:38:19;;;;;;;9.68;3.03;;;23.70;77.10;;;;;;6101504;28;80425;-67
2023/03/14 06:41:23;;;;;;;7.07;3.00;;;23.60;77.10;;;;;;6097630;28;83446;-67
2023/03/14 06:44:24;;;;;;;6.80;2.67;;;23.60;77.00;;;;;;6095731;28;83298;-71
2023/03/14 06:47:24;;;;;;;5.85;3.33;;;23.60;76.80;;;;;;6074386;28;83089;-69
2023/03/14 06:50:25;;;;;;;7.47;3.03;;;23.60;76.80;;;;;;6090837;28;83409;-69
2023/03/14 06:53:27;;;;;;;7.93;3.72;;;23.60;76.70;;;;;;6087333;28;84212;-70
2023/03/14 06:56:28;;;;;;;7.75;3.22;;;23.60;76.60;;;;;;6096273;28;82776;-70
2023/03/14 06:59:30;;;;;;;9.07;3.72;;;23.60;76.60;;;;;;6082562;28;83097;-69
2023/03/14 07:02:31;;;;;;;6.28;2.97;;;23.50;76.50;;;;;;6099231;28;83403;-64
2023/03/14 07:05:34;;;;;;;10.02;3.58;;;23.50;76.50;;;;;;6099815;28;83660;-63
2023/03/14 07:08:34;;;;;;;5.90;3.10;;;23.60;76.50;;;;;;6102013;28;81734;-63
2023/03/14 07:11:36;;;;;;;6.45;2.85;;;23.60;76.40;;;;;;6099700;28;83220;-64
2023/03/14 07:14:36;;;;;;;4.55;2.35;;;23.60;76.30;;;;;;6100593;28;83564;-64
2023/03/14 07:17:37;;;;;;;12.07;3.33;;;23.60;76.00;;;;;;6135080;28;80879;-64
2023/03/14 07:20:39;;;;;;;6.80;2.92;;;23.60;75.40;;;;;;6164379;28;82929;-61
2023/03/14 07:23:41;;;;;;;7.13;2.53;;;23.50;75.60;;;;;;6101217;28;83405;-61
2023/03/14 07:26:42;;;;;;;5.35;2.88;;;23.50;75.40;;;;;;6100241;28;83350;-59
2023/03/14 07:29:44;;;;;;;4.57;2.55;;;23.50;75.30;;;;;;6139211;28;83502;-59
2023/03/14 07:32:45;;;;;;;4.07;2.47;;;23.50;75.60;;;;;;6162617;28;80764;-61
2023/03/14 07:35:46;;;;;;;5.72;2.38;;;23.50;75.30;;;;;;6098145;28;83387;-60
2023/03/14 07:38:47;;;;;;;4.18;2.20;;;23.50;75.30;;;;;;6086509;28;80918;-60
2023/03/14 07:42:07;;;;;;;2.88;2.03;;;23.50;75.30;;;;;;6098874;28;83204;-59
2023/03/14 07:45:22;;;;;;;5.05;2.30;;;23.50;75.40;;;;;;6100876;28;80715;-58
2023/03/14 07:48:24;;;;;;;4.82;2.38;;;23.50;75.10;;;;;;6100746;28;80236;-58
2023/03/14 07:51:25;;;;;;;4.25;2.40;;;23.40;74.90;;;;;;6100768;28;80297;-58
2023/03/14 07:54:25;;;;;;;4.75;2.55;;;23.40;74.90;;;;;;6100453;27;80785;-58
2023/03/14 07:57:26;;;;;;;4.72;2.25;;;23.40;74.90;;;;;;6101222;28;84865;-71
2023/03/14 08:00:26;;;;;;;5.78;2.33;;;23.40;74.90;;;;;;6164487;28;80762;-71
2023/03/14 08:03:27;;;;;;;3.40;2.10;;;23.40;74.90;;;;;;6128794;28;80289;-69
2023/03/14 08:06:28;;;;;;;4.68;2.22;;;23.40;74.70;;;;;;6101823;28;80363;-69
2023/03/14 08:09:28;;;;;;;4.13;2.20;;;23.40;75.00;;;;;;6100703;28;80815;-69
2023/03/14 08:12:29;;;;;;;4.38;2.13;;;23.50;75.00;;;;;;6101302;28;80186;-70
2023/03/14 08:15:29;;;;;;;3.65;2.00;;;23.40;75.10;;;;;;6101245;28;80449;-69
2023/03/14 08:18:30;;;;;;;5.97;2.50;;;23.50;75.00;;;;;;6100733;28;82311;-71
2023/03/14 08:21:30;;;;;;;5.25;2.72;;;23.50;75.00;;;;;;6093112;28;80438;-68
2023/03/14 08:24:31;;;;;;;3.05;2.08;;;23.50;75.20;;;;;;6101121;28;80261;-67
2023/03/14 08:27:31;;;;;;;8.57;2.75;;;23.50;75.20;;;;;;6100939;28;80412;-68
2023/03/14 08:30:32;;;;;;;5.43;1.98;;;23.40;75.10;;;;;;6100775;28;81214;-70
2023/03/14 08:33:32;;;;;;;3.45;2.13;;;23.50;75.10;;;;;;6165999;28;80923;-68
2023/03/14 08:36:33;;;;;;;3.95;1.80;;;23.50;75.20;;;;;;6135091;28;80528;-68
2023/03/14 08:39:33;;;;;;;3.30;2.10;;;23.50;75.20;;;;;;6096892;28;80929;-69
2023/03/14 08:42:34;;;;;;;5.05;1.98;;;23.50;75.20;;;;;;6156931;28;83469;-70
2023/03/14 08:45:34;;;;;;;4.13;2.22;;;23.50;75.30;;;;;;6132435;28;81221;-69
2023/03/14 08:48:35;;;;;;;4.15;2.10;;;23.50;75.20;;;;;;6145544;28;80309;-69
2023/03/14 08:51:36;;;;;;;4.47;2.40;;;23.50;75.20;;;;;;6100378;28;80201;-59
2023/03/14 08:54:36;;;;;;;3.15;1.67;;;23.50;75.30;;;;;;6100938;28;80331;-59
2023/03/14 08:57:37;;;;;;;4.28;2.10;;;23.50;75.20;;;;;;6098752;28;81483;-59
2023/03/14 09:00:37;;;;;;;5.03;1.92;;;23.50;75.60;;;;;;6099664;28;82612;-59
2023/03/14 09:03:38;;;;;;;3.78;1.95;;;23.50;75.50;;;;;;6101844;28;80221;-59
2023/03/14 09:06:38;;;;;;;3.15;1.83;;;23.50;75.50;;;;;;6169417;28;80861;-59
2023/03/14 09:09:39;;;;;;;4.78;2.55;;;23.60;75.40;;;;;;6118604;28;80856;-59
2023/03/14 09:12:39;;;;;;;3.83;2.03;;;23.60;75.50;;;;;;6099548;28;81242;-59
2023/03/14 09:15:42;;;;;;;4.95;2.45;;;23.60;75.60;;;;;;6100157;28;82368;-59
2023/03/14 09:18:42;;;;;;;5.10;2.47;;;23.60;75.70;;;;;;6103713;28;81313;-59
2023/03/14 09:21:43;;;;;;;4.63;2.25;;;23.60;75.80;;;;;;6092691;28;80307;-58
2023/03/14 09:24:43;;;;;;;4.13;2.47;;;23.60;75.80;;;;;;6104520;28;80688;-58
2023/03/14 09:27:44;;;;;;;4.80;2.60;;;23.60;75.70;;;;;;6103076;28;80388;-59
2023/03/14 09:30:44;;;;;;;4.30;2.38;;;23.60;75.90;;;;;;6103017;28;80281;-58
2023/03/14 09:33:45;;;;;;;4.47;1.95;;;23.60;75.80;;;;;;6102639;28;81012;-59
2023/03/14 09:36:45;;;;;;;3.55;2.30;;;23.60;75.90;;;;;;6103227;28;88106;-59
2023/03/14 09:39:46;;;;;;;3.83;2.20;;;23.60;75.80;;;;;;6098962;28;81101;-58
2023/03/14 09:42:46;;;;;;;3.70;2.40;;;23.60;75.70;;;;;;6103507;28;80373;-57
2023/03/14 09:45:47;;;;;;;3.10;2.20;;;23.60;75.80;;;;;;6102798;28;80321;-66
2023/03/14 09:48:48;;;;;;;3.83;2.00;;;23.60;75.80;;;;;;6102620;28;80199;-66
2023/03/14 09:51:48;;;;;;;4.35;2.88;;;23.60;75.90;;;;;;6103511;28;80268;-66
2023/03/14 09:54:49;;;;;;;4.82;2.22;;;23.60;75.70;;;;;;6102872;28;80490;-66
2023/03/14 09:57:49;;;;;;;4.38;2.30;;;23.70;75.90;;;;;;6102768;28;81425;-66
2023/03/14 10:00:50;;;;;;;3.83;2.15;;;23.70;76.00;;;;;;6103209;28;80752;-65
2023/03/14 10:03:50;;;;;;;5.50;2.33;;;23.70;76.60;;;;;;6102885;28;81179;-64
2023/03/14 10:06:51;;;;;;;3.25;2.15;;;23.70;75.50;;;;;;6102021;28;80618;-64
2023/03/14 10:09:52;;;;;;;3.35;2.20;;;23.80;75.70;;;;;;6101049;28;83563;-64
2023/03/14 10:12:52;;;;;;;2.88;2.10;;;23.80;75.60;;;;;;6102203;28;80829;-64
2023/03/14 10:15:53;;;;;;;3.45;2.10;;;23.90;75.70;;;;;;6100622;28;81567;-64
2023/03/14 10:18:53;;;;;;;5.25;2.25;;;24.00;75.60;;;;;;6101090;28;80370;-64
2023/03/14 10:21:54;;;;;;;3.97;2.22;;;23.90;75.50;;;;;;6094677;28;80410;-64
2023/03/14 10:24:55;;;;;;;2.95;2.03;;;24.00;75.40;;;;;;6102704;28;82926;-64
2023/03/14 10:27:56;;;;;;;3.22;2.30;;;24.10;75.30;;;;;;6102085;28;81686;-64
2023/03/14 10:30:56;;;;;;;2.70;1.98;;;24.10;75.50;;;;;;6101984;28;80600;-65
2023/03/14 10:33:57;;;;;;;5.07;2.03;;;24.10;75.10;;;;;;6102319;28;80952;-66
2023/03/14 10:36:58;;;;;;;2.80;2.25;;;24.20;74.90;;;;;;6098316;28;80340;-65
2023/03/14 10:39:58;;;;;;;2.78;2.10;;;24.20;75.30;;;;;;6098074;28;81263;-64
2023/03/14 10:42:59;;;;;;;3.03;2.38;;;24.10;75.00;;;;;;6178390;28;82450;-66
2023/03/14 10:45:59;;;;;;;3.30;2.20;;;24.10;75.20;;;;;;6110421;28;81223;-66
2023/03/14 10:49:00;;;;;;;3.08;2.22;;;24.00;75.30;;;;;;6101765;28;80625;-67
2023/03/14 10:52:00;;;;;;;3.55;2.38;;;24.00;75.30;;;;;;6101109;28;86322;-66
2023/03/14 10:55:01;;;;;;;4.07;2.60;;;24.00;75.20;;;;;;6102463;28;80185;-67
2023/03/14 10:58:01;;;;;;;4.25;2.40;;;23.90;75.40;;;;;;6101457;28;80472;-66
2023/03/14 11:01:02;;;;;;;3.08;2.10;;;23.90;75.50;;;;;;6102061;28;80296;-69
2023/03/14 11:04:02;;;;;;;2.50;1.77;;;23.90;75.50;;;;;;6102468;28;80648;-68
2023/03/14 11:07:03;;;;;;;3.70;2.35;;;23.80;75.50;;;;;;6103078;28;81233;-69
2023/03/14 11:10:04;;;;;;;3.95;2.30;;;23.80;75.50;;;;;;6102846;28;80405;-70
2023/03/14 11:13:06;;;;;;;3.13;2.15;;;23.80;75.70;;;;;;6101815;28;80388;-69
2023/03/14 11:16:07;;;;;;;5.50;2.20;;;23.80;75.70;;;;;;6101996;28;80306;-67
2023/03/14 11:19:07;;;;;;;5.47;2.40;;;23.80;76.40;;;;;;6098118;28;82387;-67
2023/03/14 11:22:08;;;;;;;5.38;2.40;;;23.70;75.80;;;;;;6095888;28;80223;-65
2023/03/14 11:25:08;;;;;;;4.20;1.88;;;23.70;75.70;;;;;;6101679;28;80465;-66
2023/03/14 11:28:09;;;;;;;4.70;2.65;;;23.70;75.80;;;;;;6101275;28;80283;-66
2023/03/14 11:31:10;;;;;;;3.97;2.55;;;23.70;75.90;;;;;;6100673;28;81250;-66
2023/03/14 11:34:10;;;;;;;4.78;2.13;;;23.70;76.00;;;;;;6101745;28;80894;-67
2023/03/14 11:37:11;;;;;;;5.22;2.60;;;23.70;76.00;;;;;;6100322;28;80587;-67
2023/03/14 11:40:11;;;;;;;3.22;2.33;;;23.70;76.00;;;;;;6100952;28;80539;-67
2023/03/14 11:43:12;;;;;;;4.03;2.55;;;23.60;75.90;;;;;;6101100;28;81415;-67
2023/03/14 11:46:12;;;;;;;3.53;2.58;;;23.60;76.00;;;;;;6102110;28;81097;-68
2023/03/14 11:49:13;;;;;;;3.78;2.38;;;23.60;75.90;;;;;;6102178;28;80741;-66
2023/03/14 11:52:13;;;;;;;3.78;2.72;;;23.60;76.00;;;;;;6101189;28;80826;-66
2023/03/14 11:55:14;;;;;;;3.28;2.35;;;23.60;76.00;;;;;;6099527;28;81683;-66
2023/03/14 11:58:15;;;;;;;5.78;2.42;;;23.60;75.90;;;;;;6099125;28;82844;-67
2023/03/14 12:01:15;;;;;;;4.60;2.25;;;23.60;75.90;;;;;;6100598;28;81075;-65
2023/03/14 12:04:16;;;;;;;3.47;2.10;;;23.60;75.90;;;;;;6100435;27;84312;-66
2023/03/14 12:07:16;;;;;;;3.75;2.05;;;23.60;75.90;;;;;;6101191;28;80819;-66
2023/03/14 12:10:17;;;;;;;4.03;2.40;;;23.60;76.00;;;;;;6101054;28;80992;-69
2023/03/14 12:13:17;;;;;;;3.35;2.20;;;23.60;76.60;;;;;;6090435;28;80522;-67
2023/03/14 12:16:18;;;;;;;3.25;2.10;;;23.60;76.00;;;;;;6087777;28;80410;-67
2023/03/14 12:19:20;;;;;;;5.75;2.90;;;23.60;76.10;;;;;;6095091;28;81326;-67
2023/03/14 12:22:20;;;;;;;4.18;2.33;;;23.60;76.20;;;;;;6097009;28;81226;-67
2023/03/14 12:25:21;;;;;;;2.92;2.28;;;23.60;76.10;;;;;;6101302;28;80529;-67
2023/03/14 12:28:21;;;;;;;2.72;1.92;;;23.60;76.10;;;;;;6100489;28;81526;-67
2023/03/14 12:31:22;;;;;;;3.15;2.00;;;23.60;76.00;;;;;;6101689;28;80303;-66
2023/03/14 12:34:22;;;;;;;3.80;1.85;;;23.60;76.10;;;;;;6101160;28;80773;-66
2023/03/14 12:37:23;;;;;;;4.32;3.08;;;23.60;76.00;;;;;;6100548;28;80449;-65
2023/03/14 12:40:23;;;;;;;3.45;2.28;;;23.60;76.10;;;;;;6099548;28;80510;-66
2023/03/14 12:43:24;;;;;;;3.45;2.05;;;23.60;76.10;;;;;;6099730;28;81282;-66
2023/03/14 12:46:25;;;;;;;4.93;2.60;;;23.60;76.30;;;;;;6099375;28;80915;-67
2023/03/14 12:49:26;;;;;;;3.72;2.35;;;23.60;76.20;;;;;;6099643;28;80348;-67
2023/03/14 12:52:26;;;;;;;5.20;2.45;;;23.50;76.00;;;;;;6101395;28;80396;-67
2023/03/14 12:55:27;;;;;;;4.75;1.95;;;23.50;76.10;;;;;;6101046;28;80063;-67
2023/03/14 12:58:29;;;;;;;3.22;2.00;;;23.50;76.20;;;;;;6116059;28;80673;-68
2023/03/14 13:01:30;;;;;;;4.32;2.00;;;23.50;76.30;;;;;;6100108;28;80704;-67
2023/03/14 13:04:30;;;;;;;3.65;2.22;;;23.40;76.20;;;;;;6100533;28;80616;-68
2023/03/14 13:07:31;;;;;;;6.35;2.70;;;23.40;76.20;;;;;;6100236;28;80303;-67
2023/03/14 13:10:31;;;;;;;3.97;2.40;;;23.40;76.20;;;;;;6099616;28;81334;-66
2023/03/14 13:13:32;;;;;;;3.33;2.30;;;23.40;76.30;;;;;;6099759;28;81937;-66
2023/03/14 13:16:32;;;;;;;5.38;2.55;;;23.40;76.20;;;;;;6100974;28;81353;-66
2023/03/14 13:19:33;;;;;;;2.55;2.10;;;23.40;76.20;;;;;;6091914;28;80744;-65
2023/03/14 13:22:34;;;;;;;3.50;2.30;;;23.40;76.20;;;;;;6096837;28;80620;-65
2023/03/14 13:25:34;;;;;;;3.33;2.30;;;23.40;76.10;;;;;;6099254;28;80131;-68
2023/03/14 13:28:35;;;;;;;4.40;2.50;;;23.40;76.10;;;;;;6100378;28;80173;-70
2023/03/14 13:31:35;;;;;;;2.75;1.90;;;23.30;76.10;;;;;;6100071;28;81530;-68
2023/03/14 13:34:36;;;;;;;4.18;2.13;;;23.30;76.10;;;;;;6100164;28;84916;-67
2023/03/14 13:37:37;;;;;;;1.77;1.58;;;23.30;76.20;;;;;;6100648;28;80488;-68
2023/03/14 13:40:37;;;;;;;2.65;1.98;;;23.30;76.20;;;;;;6099024;28;80869;-68
2023/03/14 13:43:38;;;;;;;4.45;1.90;;;23.30;76.20;;;;;;6100186;28;80396;-68
2023/03/14 13:46:38;;;;;;;3.63;2.55;;;23.30;76.20;;;;;;6194974;28;80254;-68
2023/03/14 13:49:39;;;;;;;3.10;2.42;;;23.30;76.10;;;;;;6090316;28;80353;-69
2023/03/14 13:52:39;;;;;;;4.97;2.58;;;23.30;76.20;;;;;;6093157;28;80508;-67
2023/03/14 13:55:40;;;;;;;2.45;2.20;;;23.30;76.30;;;;;;6095447;28;80220;-63
2023/03/14 13:58:40;;;;;;;4.35;2.28;;;23.30;76.30;;;;;;6091619;28;80958;-66
2023/03/14 14:01:41;;;;;;;3.72;2.22;;;23.30;76.40;;;;;;6082779;28;81062;-64
2023/03/14 14:04:41;;;;;;;3.97;2.30;;;23.30;76.60;;;;;;6102267;28;82352;-62
2023/03/14 14:07:42;;;;;;;5.60;2.58;;;23.30;77.00;;;;;;6096018;28;81197;-64
2023/03/14 14:10:42;;;;;;;3.50;2.00;;;23.30;77.10;;;;;;6092536;28;80355;-65
2023/03/14 14:13:43;;;;;;;2.60;1.92;;;23.30;77.40;;;;;;6097612;28;81903;-61
2023/03/14 14:16:44;;;;;;;3.80;2.17;;;23.30;77.40;;;;;;6101638;28;82012;-62
2023/03/14 14:19:44;;;;;;;3.95;2.75;;;23.30;77.60;;;;;;6102683;28;82178;-61
2023/03/14 14:22:45;;;;;;;3.58;2.28;;;23.40;77.60;;;;;;6102576;28;82760;-65
2023/03/14 14:25:45;;;;;;;5.32;1.83;;;23.40;77.70;;;;;;6100753;28;80947;-63
2023/03/14 14:28:46;;;;;;;4.55;2.50;;;23.30;77.70;;;;;;6101828;28;80984;-64
2023/03/14 14:31:46;;;;;;;4.70;2.28;;;23.40;77.50;;;;;;6099688;28;81136;-66
2023/03/14 14:34:50;;;;;;;2.63;2.00;;;23.40;77.70;;;;;;6104398;28;80659;-65
2023/03/14 14:37:50;;;;;;;4.30;2.13;;;23.40;77.80;;;;;;6099013;28;81810;-63
2023/03/14 14:40:51;;;;;;;3.85;2.30;;;23.40;78.10;;;;;;6101784;28;80588;-68
2023/03/14 14:43:52;;;;;;;5.32;2.10;;;23.40;78.10;;;;;;6103042;28;80209;-68
2023/03/14 14:46:52;;;;;;;4.28;1.90;;;23.40;78.50;;;;;;6094333;28;80824;-64
2023/03/14 14:49:53;;;;;;;3.20;2.00;;;23.40;78.30;;;;;;6102806;28;80618;-65
2023/03/14 14:52:53;;;;;;;7.07;2.72;;;23.40;78.30;;;;;;6103282;28;81075;-65
2023/03/14 14:55:54;;;;;;;6.53;2.95;;;23.30;78.10;;;;;;6085274;28;80422;-63
2023/03/14 14:58:55;;;;;;;10.57;3.10;;;23.30;78.20;;;;;;6083139;28;80629;-61
2023/03/14 15:01:55;;;;;;;7.25;2.80;;;23.40;78.30;;;;;;6079016;28;81965;-60
2023/03/14 15:04:56;;;;;;;5.82;3.05;;;23.30;78.50;;;;;;6110640;28;81607;-59
2023/03/14 15:07:57;;;;;;;13.40;3.10;;;23.40;79.10;;;;;;6186464;28;80899;-61
2023/03/14 15:10:57;;;;;;;5.68;2.60;;;23.30;79.50;;;;;;6113283;28;80593;-61
2023/03/14 15:13:58;;;;;;;5.68;3.30;;;23.30;80.00;;;;;;6180087;28;80536;-63
2023/03/14 15:16:58;;;;;;;8.63;3.22;;;23.30;80.60;;;;;;6097262;28;80180;-62
2023/03/14 15:19:59;;;;;;;7.20;3.05;;;23.40;80.60;;;;;;6097211;28;82522;-63
2023/03/14 15:22:59;;;;;;;6.60;3.22;;;23.30;80.70;;;;;;6099806;28;82485;-61
2023/03/14 15:26:00;;;;;;;5.50;3.40;;;23.40;80.80;;;;;;6098742;28;80051;-68
2023/03/14 15:29:00;;;;;;;7.30;2.92;;;23.40;80.40;;;;;;6092723;28;87250;-68
2023/03/14 15:32:01;;;;;;;6.75;3.60;;;23.40;80.00;;;;;;6101838;28;81184;-64
2023/03/14 15:35:01;;;;;;;5.20;3.10;;;23.50;79.70;;;;;;6098519;28;87203;-66
2023/03/14 15:38:02;;;;;;;5.20;3.40;;;23.50;79.30;;;;;;6095232;28;80568;-63
2023/03/14 15:41:03;;;;;;;5.70;2.95;;;23.60;79.10;;;;;;6095855;28;82136;-65
2023/03/14 15:44:04;;;;;;;4.43;2.58;;;23.60;79.00;;;;;;6098486;28;80861;-66
2023/03/14 15:47:04;;;;;;;6.40;2.88;;;23.60;78.90;;;;;;6099265;28;81009;-68